Time;durP1;ratioP1;P1;durP2;ratioP2;P2;SDS_P1;SDS_P2;PMS_P1;PMS_P2;Temp;Humidity;BMP_temperature;BMP_pressure;BME280_temperature;BME280_humidity;BME280_pressure;Samples;Min_cycle;Max_cycle;Signal;HPM_P1;HPM_P2
2022/06/03 00:02:29;;;;;;;0.80;0.80;;;18.20;99.90;;;;;;5068983;28;20233;-65
2022/06/03 00:05:28;;;;;;;0.73;0.73;;;18.10;99.90;;;;;;5073628;28;20585;-66
2022/06/03 00:08:11;;;;;;;0.90;0.90;;;18.00;99.90;;;;;;5075893;28;20205;-66
2022/06/03 00:11:01;;;;;;;0.88;0.88;;;17.90;99.90;;;;;;5079119;28;20203;-67
2022/06/03 00:13:47;;;;;;;0.73;0.73;;;17.90;99.90;;;;;;5071501;28;20609;-65
2022/06/03 00:16:25;;;;;;;0.70;0.70;;;17.80;99.90;;;;;;5084520;28;20199;-66
2022/06/03 00:19:30;;;;;;;0.80;0.80;;;17.80;99.90;;;;;;5079227;28;20209;-66
2022/06/03 00:22:12;;;;;;;0.90;0.90;;;17.80;99.90;;;;;;5036593;28;20222;-65
2022/06/03 00:24:56;;;;;;;0.85;0.85;;;17.80;99.90;;;;;;5087354;28;20203;-66
2022/06/03 00:27:54;;;;;;;0.68;0.68;;;17.80;99.90;;;;;;5073798;28;20195;-65
2022/06/03 00:30:33;;;;;;;0.80;0.80;;;17.70;99.90;;;;;;5064574;28;20216;-66
2022/06/03 00:33:17;;;;;;;0.80;0.80;;;17.70;99.90;;;;;;5076882;28;20313;-66
2022/06/03 00:35:54;;;;;;;0.77;0.77;;;17.70;99.90;;;;;;5084327;28;20203;-65
2022/06/03 00:38:35;;;;;;;0.70;0.70;;;17.70;99.90;;;;;;5077733;28;20558;-67
2022/06/03 00:41:29;;;;;;;0.70;0.70;;;17.70;99.90;;;;;;5090093;28;20202;-67
2022/06/03 00:44:12;;;;;;;0.82;0.82;;;17.60;99.90;;;;;;5076984;28;20199;-66
2022/06/03 00:46:59;;;;;;;0.80;0.80;;;17.50;99.90;;;;;;5086143;28;20218;-66
2022/06/03 00:49:58;;;;;;;0.80;0.80;;;17.40;99.90;;;;;;5064311;28;20211;-65
2022/06/03 00:52:55;;;;;;;0.95;0.95;;;17.40;99.90;;;;;;5071599;28;20318;-66
2022/06/03 00:55:53;;;;;;;0.80;0.80;;;17.30;99.90;;;;;;5078072;28;20203;-65
2022/06/03 00:58:44;;;;;;;0.90;0.90;;;17.30;99.90;;;;;;5077479;28;20226;-65
2022/06/03 01:01:15;;;;;;;0.80;0.80;;;17.30;99.90;;;;;;5083500;28;20200;-65
2022/06/03 01:03:59;;;;;;;0.63;0.63;;;17.20;99.90;;;;;;5077712;28;20550;-66
2022/06/03 01:06:37;;;;;;;0.82;0.82;;;17.10;99.90;;;;;;5075895;28;20314;-66
2022/06/03 01:09:17;;;;;;;0.85;0.85;;;17.00;99.90;;;;;;5084513;28;20210;-66
2022/06/03 01:12:15;;;;;;;0.82;0.82;;;17.00;99.90;;;;;;5079674;28;20229;-66
2022/06/03 01:15:03;;;;;;;0.90;0.90;;;17.00;99.90;;;;;;5071571;28;20208;-66
2022/06/03 01:17:38;;;;;;;0.80;0.80;;;16.90;99.90;;;;;;5078994;28;20202;-66
2022/06/03 01:20:18;;;;;;;0.80;0.80;;;16.90;99.90;;;;;;5083361;28;20199;-68
2022/06/03 01:23:28;;;;;;;0.88;0.80;;;16.80;99.90;;;;;;5080471;28;20226;-66
2022/06/03 01:26:19;;;;;;;0.77;0.77;;;16.80;99.90;;;;;;5081659;28;20313;-66
2022/06/03 01:29:32;;;;;;;0.70;0.70;;;16.70;99.90;;;;;;5080503;28;20235;-66
2022/06/03 01:32:35;;;;;;;0.93;0.93;;;16.80;99.90;;;;;;5078873;28;20226;-66
2022/06/03 01:35:47;;;;;;;0.80;0.80;;;16.80;99.90;;;;;;5079212;28;20195;-66
2022/06/03 01:38:27;;;;;;;0.80;0.80;;;16.80;99.90;;;;;;5084464;28;20202;-66
2022/06/03 01:41:10;;;;;;;0.77;0.77;;;16.90;99.90;;;;;;5084752;28;20274;-66
2022/06/03 01:44:06;;;;;;;0.80;0.80;;;16.90;99.90;;;;;;5084052;28;20772;-66
2022/06/03 01:46:34;;;;;;;0.70;0.70;;;16.90;99.90;;;;;;5069321;28;20230;-66
2022/06/03 01:49:36;;;;;;;0.55;0.55;;;17.10;99.90;;;;;;5081854;28;20573;-67
2022/06/03 01:52:38;;;;;;;0.70;0.70;;;17.10;99.90;;;;;;5077618;28;20256;-65
2022/06/03 01:55:57;;;;;;;0.60;0.60;;;17.20;99.90;;;;;;5083778;28;20998;-65
2022/06/03 01:59:00;;;;;;;0.95;0.95;;;17.20;99.90;;;;;;5075734;28;20213;-66
2022/06/03 02:02:03;;;;;;;0.90;0.90;;;17.20;99.90;;;;;;5065616;28;20206;-66
2022/06/03 02:04:50;;;;;;;0.88;0.88;;;17.20;99.90;;;;;;5074547;28;20198;-66
2022/06/03 02:07:40;;;;;;;0.80;0.80;;;17.30;99.90;;;;;;5083369;28;20293;-66
2022/06/03 02:10:33;;;;;;;1.10;0.80;;;17.20;99.90;;;;;;5078183;28;20657;-65
2022/06/03 02:13:30;;;;;;;0.90;0.90;;;17.20;99.90;;;;;;5085834;28;20223;-67
2022/06/03 02:16:29;;;;;;;0.75;0.75;;;17.10;99.90;;;;;;5048866;28;20573;-66
2022/06/03 02:19:27;;;;;;;0.80;0.80;;;17.10;99.90;;;;;;5081984;28;20290;-66
2022/06/03 02:22:29;;;;;;;0.77;0.77;;;16.90;99.90;;;;;;5045486;28;20724;-66
2022/06/03 02:25:24;;;;;;;0.70;0.70;;;17.00;99.90;;;;;;5066502;28;20199;-65
2022/06/03 02:28:17;;;;;;;0.90;0.90;;;16.90;99.90;;;;;;5075988;28;20202;-66
2022/06/03 02:31:14;;;;;;;0.80;0.80;;;16.90;99.90;;;;;;5076242;28;20617;-65
2022/06/03 02:34:17;;;;;;;0.90;0.90;;;16.90;99.90;;;;;;5079817;28;20207;-65
2022/06/03 02:37:12;;;;;;;0.90;0.90;;;16.70;99.90;;;;;;5078902;28;20203;-65
2022/06/03 02:40:11;;;;;;;0.90;0.90;;;16.70;99.90;;;;;;5074911;28;20207;-67
2022/06/03 02:43:19;;;;;;;0.93;0.93;;;16.70;99.90;;;;;;5075409;28;21003;-66
2022/06/03 02:46:11;;;;;;;0.90;0.90;;;16.70;99.90;;;;;;5076523;28;20278;-66
2022/06/03 02:49:10;;;;;;;0.85;0.85;;;16.60;99.90;;;;;;5081766;28;20203;-66
2022/06/03 02:52:06;;;;;;;0.90;0.90;;;16.50;99.90;;;;;;5071772;28;20219;-65
2022/06/03 02:55:14;;;;;;;0.90;0.90;;;16.50;99.90;;;;;;5072584;28;20203;-66
2022/06/03 02:58:22;;;;;;;0.90;0.90;;;16.40;99.90;;;;;;5051981;28;20207;-66
2022/06/03 03:01:14;;;;;;;0.90;0.90;;;16.40;99.90;;;;;;5077106;28;20223;-66
2022/06/03 03:04:08;;;;;;;0.90;0.90;;;16.30;99.90;;;;;;5095497;28;20207;-65
2022/06/03 03:07:10;;;;;;;0.90;0.90;;;16.30;99.90;;;;;;5085479;28;20230;-65
2022/06/03 03:09:55;;;;;;;0.80;0.80;;;16.20;99.90;;;;;;5074081;28;20285;-66
2022/06/03 03:13:08;;;;;;;1.00;1.00;;;16.20;99.90;;;;;;5089121;28;20691;-66
2022/06/03 03:16:04;;;;;;;1.00;1.00;;;16.20;99.90;;;;;;4995976;28;20293;-66
2022/06/03 03:19:01;;;;;;;0.80;0.80;;;16.20;99.90;;;;;;5076490;28;20311;-65
2022/06/03 03:22:00;;;;;;;0.80;0.80;;;16.20;99.90;;;;;;5077779;28;20209;-67
2022/06/03 03:25:11;;;;;;;0.90;0.90;;;16.30;99.90;;;;;;4999907;28;20206;-67
2022/06/03 03:27:53;;;;;;;0.88;0.88;;;16.30;99.90;;;;;;4968733;28;20228;-67
2022/06/03 03:30:25;;;;;;;0.82;0.82;;;16.40;99.90;;;;;;5072317;28;20198;-66
2022/06/03 03:33:13;;;;;;;1.00;1.00;;;16.40;99.90;;;;;;5086868;28;20254;-66
2022/06/03 03:36:08;;;;;;;0.80;0.80;;;16.50;99.90;;;;;;5078398;28;20278;-67
2022/06/03 03:39:06;;;;;;;0.80;0.80;;;16.50;99.90;;;;;;5083208;28;20205;-64
2022/06/03 03:42:12;;;;;;;1.00;1.00;;;16.50;99.90;;;;;;5075504;28;20203;-66
2022/06/03 03:45:20;;;;;;;0.90;0.90;;;16.40;99.90;;;;;;5073475;28;20199;-65
2022/06/03 03:48:19;;;;;;;1.00;1.00;;;16.50;99.90;;;;;;5086222;28;20211;-65
2022/06/03 03:51:20;;;;;;;0.88;0.88;;;16.50;99.90;;;;;;5081629;28;20279;-66
2022/06/03 03:54:30;;;;;;;0.80;0.80;;;16.60;99.90;;;;;;5075767;28;20224;-65
2022/06/03 03:57:34;;;;;;;0.80;0.80;;;16.60;99.90;;;;;;5084046;28;20282;-66
2022/06/03 04:00:14;;;;;;;0.98;0.98;;;16.60;99.90;;;;;;5073334;28;20203;-65
2022/06/03 04:03:20;;;;;;;0.98;0.98;;;16.50;99.90;;;;;;5074389;28;20229;-65
2022/06/03 04:06:25;;;;;;;0.90;0.90;;;16.50;99.90;;;;;;5075719;28;20216;-65
2022/06/03 04:09:26;;;;;;;1.02;1.00;;;16.70;99.90;;;;;;5081812;28;20206;-68
2022/06/03 04:12:28;;;;;;;1.20;1.20;;;16.50;99.90;;;;;;5085497;28;20329;-66
2022/06/03 04:15:31;;;;;;;0.80;0.80;;;16.60;99.90;;;;;;5079243;28;20289;-65
2022/06/03 04:18:37;;;;;;;0.90;0.90;;;16.60;99.90;;;;;;5065869;28;20268;-65
2022/06/03 04:21:45;;;;;;;1.02;1.00;;;16.70;99.90;;;;;;5043248;28;20677;-67
2022/06/03 04:24:56;;;;;;;0.80;0.80;;;16.60;99.90;;;;;;5081269;28;20289;-66
2022/06/03 04:27:51;;;;;;;0.70;0.70;;;16.60;99.90;;;;;;5069922;28;20306;-64
2022/06/03 04:30:54;;;;;;;0.77;0.77;;;16.70;99.90;;;;;;5085601;28;20290;-66
2022/06/03 04:33:48;;;;;;;0.63;0.63;;;16.70;99.90;;;;;;5078537;28;20642;-65
2022/06/03 04:36:50;;;;;;;0.90;0.90;;;16.80;99.90;;;;;;5077054;28;20709;-67
2022/06/03 04:39:55;;;;;;;0.90;0.90;;;16.80;99.90;;;;;;5083102;28;20238;-65
2022/06/03 04:43:11;;;;;;;0.75;0.75;;;16.80;99.90;;;;;;5078330;28;20280;-67
2022/06/03 04:46:34;;;;;;;0.90;0.90;;;16.80;99.90;;;;;;4989608;28;20210;-66
2022/06/03 04:49:50;;;;;;;0.88;0.88;;;16.80;99.90;;;;;;5075451;28;20205;-66
2022/06/03 04:52:55;;;;;;;1.02;0.90;;;16.90;99.90;;;;;;5082453;28;20338;-66
2022/06/03 04:56:09;;;;;;;1.00;0.98;;;16.90;99.90;;;;;;5071539;28;20194;-65
2022/06/03 04:59:19;;;;;;;0.98;0.93;;;16.90;99.90;;;;;;5074964;28;20207;-66
2022/06/03 05:02:35;;;;;;;0.90;0.90;;;16.90;99.90;;;;;;5078442;28;20305;-67
2022/06/03 05:05:40;;;;;;;1.33;1.10;;;16.80;99.90;;;;;;5075206;28;20286;-65
2022/06/03 05:08:45;;;;;;;1.00;1.00;;;16.80;99.90;;;;;;5038962;28;20224;-65
2022/06/03 05:12:03;;;;;;;1.10;1.10;;;16.70;99.90;;;;;;5082272;28;20232;-66
2022/06/03 05:15:20;;;;;;;1.02;1.02;;;16.60;99.90;;;;;;5090972;28;20195;-66
2022/06/03 05:18:27;;;;;;;1.00;1.00;;;16.70;99.90;;;;;;5083887;28;20231;-67
2022/06/03 05:21:32;;;;;;;1.05;1.05;;;17.00;99.90;;;;;;5073514;28;20202;-64
2022/06/03 05:24:24;;;;;;;1.17;1.10;;;17.20;99.90;;;;;;5078559;28;20626;-66
2022/06/03 05:27:19;;;;;;;1.08;1.08;;;17.20;99.90;;;;;;5078824;28;20211;-65
2022/06/03 05:30:29;;;;;;;0.93;0.93;;;17.40;99.90;;;;;;5072483;28;20211;-64
2022/06/03 05:33:32;;;;;;;1.00;1.00;;;17.70;99.90;;;;;;5067881;28;20225;-66
2022/06/03 05:36:32;;;;;;;0.93;0.93;;;17.90;99.90;;;;;;5072941;28;20209;-68
2022/06/03 05:39:33;;;;;;;1.00;1.00;;;18.30;99.90;;;;;;5078212;28;20282;-66
2022/06/03 05:42:27;;;;;;;1.20;1.20;;;18.60;99.90;;;;;;5076539;28;20306;-65
2022/06/03 05:45:18;;;;;;;1.55;1.20;;;18.80;99.90;;;;;;5079708;28;20204;-65
2022/06/03 05:47:50;;;;;;;1.30;1.30;;;19.10;99.90;;;;;;5071110;28;20211;-66
2022/06/03 05:50:23;;;;;;;1.15;1.15;;;19.20;99.90;;;;;;5071783;28;20550;-66
2022/06/03 05:53:09;;;;;;;1.30;1.30;;;19.40;99.90;;;;;;5068976;28;20326;-66
2022/06/03 05:55:47;;;;;;;1.40;1.30;;;19.40;99.90;;;;;;5070713;28;20226;-66
2022/06/03 05:58:34;;;;;;;1.00;1.00;;;19.40;99.90;;;;;;5068153;28;20286;-67
2022/06/03 06:01:34;;;;;;;1.20;1.20;;;19.50;99.90;;;;;;5069518;28;20591;-65
2022/06/03 06:04:10;;;;;;;1.17;1.17;;;19.50;99.90;;;;;;5030454;28;20204;-64
2022/06/03 06:06:52;;;;;;;0.90;0.90;;;19.60;99.90;;;;;;5069252;28;20234;-64
2022/06/03 06:09:34;;;;;;;1.00;1.00;;;19.80;99.90;;;;;;5063334;28;20653;-65
2022/06/03 06:12:23;;;;;;;1.20;1.10;;;19.80;99.90;;;;;;5061822;28;20306;-65
2022/06/03 06:15:11;;;;;;;1.17;1.17;;;19.70;99.90;;;;;;5064411;28;20302;-66
2022/06/03 06:17:51;;;;;;;1.30;1.30;;;19.50;99.90;;;;;;5065585;28;20208;-66
2022/06/03 06:20:40;;;;;;;1.20;1.20;;;19.70;99.90;;;;;;5068343;28;20278;-66
2022/06/03 06:23:16;;;;;;;1.02;1.02;;;19.90;99.90;;;;;;5069365;28;20227;-67
2022/06/03 06:26:06;;;;;;;1.00;1.00;;;20.10;99.90;;;;;;5074069;28;20293;-65
2022/06/03 06:28:54;;;;;;;0.88;0.88;;;20.10;99.90;;;;;;5069077;28;20253;-66
2022/06/03 06:31:44;;;;;;;1.05;1.05;;;20.10;99.90;;;;;;5076156;28;20190;-66
2022/06/03 06:34:36;;;;;;;1.05;1.05;;;20.00;99.90;;;;;;5086225;28;20680;-66
2022/06/03 06:37:47;;;;;;;1.10;1.10;;;20.10;99.90;;;;;;5075550;28;20238;-65
2022/06/03 06:40:27;;;;;;;1.00;1.00;;;20.20;99.90;;;;;;5080512;28;20206;-67
2022/06/03 06:43:05;;;;;;;1.10;1.10;;;20.20;99.90;;;;;;5072864;28;20253;-66
2022/06/03 06:45:49;;;;;;;1.00;1.00;;;20.30;99.90;;;;;;5070876;28;20206;-66
2022/06/03 06:48:26;;;;;;;1.30;1.20;;;20.40;99.90;;;;;;5077545;28;20221;-65
2022/06/03 06:50:57;;;;;;;1.48;1.33;;;20.70;99.90;;;;;;5084589;28;20206;-66
2022/06/03 06:53:34;;;;;;;1.15;1.15;;;20.80;99.90;;;;;;5071906;28;20230;-65
2022/06/03 06:56:11;;;;;;;1.20;1.20;;;20.90;99.90;;;;;;5080147;28;20664;-64
2022/06/03 06:58:50;;;;;;;1.00;1.00;;;21.10;99.90;;;;;;5074527;28;20197;-65
2022/06/03 07:01:22;;;;;;;0.85;0.85;;;21.00;99.90;;;;;;5072008;28;20309;-65
2022/06/03 07:03:55;;;;;;;0.90;0.90;;;21.20;99.90;;;;;;5067417;28;20199;-66
2022/06/03 07:06:30;;;;;;;1.10;1.00;;;21.40;99.90;;;;;;5073972;28;20229;-66
2022/06/03 07:09:05;;;;;;;0.90;0.90;;;21.40;99.90;;;;;;5074221;28;20205;-65
2022/06/03 07:11:38;;;;;;;1.10;1.10;;;21.50;99.90;;;;;;5074443;28;20191;-65
2022/06/03 07:14:08;;;;;;;1.00;1.00;;;21.80;99.90;;;;;;5079636;28;20195;-66
2022/06/03 07:19:50;;;;;;;0.90;0.90;;;22.20;99.90;;;;;;5077415;28;20210;-66
2022/06/03 07:22:24;;;;;;;1.10;1.10;;;22.40;99.90;;;;;;5082587;28;20237;-66
2022/06/03 07:24:59;;;;;;;2.00;1.13;;;22.40;99.90;;;;;;5079213;28;20200;-67
2022/06/03 07:27:30;;;;;;;1.00;1.00;;;22.30;99.90;;;;;;5067891;28;20253;-65
2022/06/03 07:30:04;;;;;;;1.20;1.20;;;22.30;99.90;;;;;;5078669;28;20252;-66
2022/06/03 07:32:39;;;;;;;1.00;1.00;;;22.40;99.90;;;;;;5083128;28;20313;-65
2022/06/03 07:35:13;;;;;;;1.08;1.08;;;22.40;99.90;;;;;;5079345;28;20199;-66
2022/06/03 07:37:46;;;;;;;1.10;1.10;;;22.20;99.90;;;;;;5083346;28;20194;-67
2022/06/03 07:40:19;;;;;;;1.20;1.10;;;22.20;99.90;;;;;;5080218;28;20203;-67
2022/06/03 07:42:52;;;;;;;1.67;1.42;;;22.30;99.90;;;;;;5081424;28;20657;-66
2022/06/03 07:45:40;;;;;;;1.50;1.40;;;22.50;99.90;;;;;;5080324;28;20679;-65
2022/06/03 07:48:14;;;;;;;1.20;1.20;;;22.50;99.90;;;;;;5085243;28;20230;-65
2022/06/03 07:50:49;;;;;;;1.20;1.10;;;22.40;99.90;;;;;;5084911;28;20218;-66
2022/06/03 07:53:22;;;;;;;1.30;1.25;;;22.30;99.90;;;;;;5078820;28;20242;-66
2022/06/03 07:55:54;;;;;;;1.38;1.30;;;22.30;99.90;;;;;;5086618;28;20198;-66
2022/06/03 07:58:24;;;;;;;1.20;1.20;;;22.50;99.90;;;;;;5079638;28;20219;-65
2022/06/03 08:00:51;;;;;;;1.00;1.00;;;22.60;99.90;;;;;;5067265;28;20231;-66
2022/06/03 08:03:21;;;;;;;1.30;1.20;;;22.80;99.90;;;;;;5088612;28;20229;-66
2022/06/03 08:05:51;;;;;;;1.05;1.05;;;22.90;99.90;;;;;;5078903;28;20195;-66
2022/06/03 08:11:13;;;;;;;1.00;1.00;;;22.80;99.90;;;;;;5082202;28;20206;-66
2022/06/03 08:13:49;;;;;;;1.05;1.05;;;23.10;99.90;;;;;;5087059;28;20276;-66
2022/06/03 08:16:29;;;;;;;0.80;0.80;;;23.00;99.90;;;;;;5085227;28;20203;-66
2022/06/03 08:19:00;;;;;;;1.00;1.00;;;23.00;99.90;;;;;;5084116;28;20252;-66
2022/06/03 08:21:31;;;;;;;1.13;1.13;;;23.20;99.90;;;;;;5081963;28;20203;-66
2022/06/03 08:24:00;;;;;;;1.52;1.15;;;23.40;99.90;;;;;;5085125;28;20206;-67
2022/06/03 08:26:29;;;;;;;1.00;1.00;;;23.30;99.90;;;;;;5082577;28;20203;-66
2022/06/03 08:29:05;;;;;;;0.98;0.98;;;22.80;99.90;;;;;;5088861;28;20226;-66
2022/06/03 08:31:32;;;;;;;1.00;1.00;;;22.80;99.90;;;;;;5079944;28;20285;-66
2022/06/03 08:34:04;;;;;;;0.90;0.90;;;22.70;99.90;;;;;;5088919;28;20207;-66
2022/06/03 08:36:36;;;;;;;1.00;1.00;;;22.80;99.90;;;;;;5082335;28;20217;-67
2022/06/03 08:39:07;;;;;;;1.10;1.10;;;23.00;99.90;;;;;;5090026;28;20648;-66
2022/06/03 08:41:53;;;;;;;0.90;0.90;;;23.20;99.90;;;;;;5082198;28;20215;-67
2022/06/03 08:44:46;;;;;;;0.88;0.88;;;23.10;99.90;;;;;;5084986;28;20203;-66
2022/06/03 08:47:19;;;;;;;1.10;1.10;;;23.10;99.90;;;;;;5083107;28;20207;-66
2022/06/03 08:49:59;;;;;;;0.90;0.90;;;23.10;99.90;;;;;;5085814;28;20217;-67
2022/06/03 08:52:39;;;;;;;1.17;1.17;;;23.00;99.90;;;;;;5074526;28;20226;-66
2022/06/03 08:55:21;;;;;;;1.08;1.05;;;23.00;99.90;;;;;;5083923;28;20229;-67
2022/06/03 08:57:52;;;;;;;1.20;1.10;;;23.00;99.90;;;;;;5090108;28;20732;-66
2022/06/03 09:00:24;;;;;;;1.00;1.00;;;23.20;99.90;;;;;;5084126;28;20751;-65
2022/06/03 09:02:59;;;;;;;0.95;0.95;;;23.40;99.90;;;;;;5087784;28;20245;-66
2022/06/03 09:05:33;;;;;;;0.90;0.90;;;23.60;99.90;;;;;;5092075;28;20681;-65
2022/06/03 09:08:05;;;;;;;1.17;1.08;;;23.90;99.90;;;;;;5088305;28;20210;-66
2022/06/03 09:10:40;;;;;;;1.15;1.10;;;23.90;99.90;;;;;;5088897;28;20207;-67
2022/06/03 09:13:16;;;;;;;1.00;1.00;;;23.90;99.90;;;;;;5091629;28;20712;-65
2022/06/03 09:15:45;;;;;;;1.02;1.02;;;23.90;99.90;;;;;;5104312;22;20215;-63
2022/06/03 09:18:17;;;;;;;1.00;1.00;;;24.00;99.90;;;;;;5088997;28;20233;-63
2022/06/03 09:20:52;;;;;;;1.20;1.20;;;24.40;99.90;;;;;;5074027;28;20203;-63
2022/06/03 09:23:22;;;;;;;1.08;1.08;;;24.30;99.90;;;;;;5077141;28;20214;-63
2022/06/03 09:25:52;;;;;;;1.05;1.05;;;24.10;99.90;;;;;;5081610;28;20310;-63
2022/06/03 09:28:26;;;;;;;1.13;1.13;;;24.20;99.90;;;;;;5084531;28;20723;-63
2022/06/03 09:30:54;;;;;;;1.27;1.27;;;24.20;99.90;;;;;;5053345;28;20204;-64
2022/06/03 09:33:23;;;;;;;1.00;1.00;;;24.40;99.90;;;;;;5074807;28;20230;-62
2022/06/03 09:35:55;;;;;;;0.93;0.93;;;24.50;99.90;;;;;;5074198;28;20223;-61
2022/06/03 09:38:25;;;;;;;1.25;1.15;;;24.30;99.90;;;;;;5073361;28;20199;-63
2022/06/03 09:40:56;;;;;;;1.10;1.10;;;24.20;99.90;;;;;;5073334;28;20286;-64
2022/06/03 09:43:27;;;;;;;1.20;1.20;;;24.20;99.90;;;;;;5075818;28;20259;-62
2022/06/03 09:45:58;;;;;;;0.90;0.90;;;24.20;99.90;;;;;;5084253;28;20225;-62
2022/06/03 09:48:28;;;;;;;1.02;1.02;;;24.40;99.90;;;;;;5090613;28;20245;-62
2022/06/03 09:51:07;;;;;;;1.00;1.00;;;24.50;99.90;;;;;;5081020;28;20282;-62
2022/06/03 09:53:36;;;;;;;1.00;1.00;;;24.60;99.90;;;;;;5071000;28;20205;-64
2022/06/03 09:56:07;;;;;;;1.50;1.00;;;24.60;99.90;;;;;;5072819;28;20226;-63
2022/06/03 09:58:34;;;;;;;1.23;1.13;;;24.40;99.90;;;;;;5072822;28;20234;-62
2022/06/03 10:01:03;;;;;;;1.10;1.05;;;24.20;99.90;;;;;;5072448;28;20252;-63
2022/06/03 10:03:32;;;;;;;1.10;1.10;;;24.00;99.90;;;;;;5072378;28;20669;-62
2022/06/03 10:06:00;;;;;;;0.90;0.90;;;23.90;99.90;;;;;;5072099;28;20242;-62
2022/06/03 10:12:48;;;;;;;0.88;0.88;;;23.70;99.90;;;;;;5072538;28;20322;-64
2022/06/03 10:14:06;;;;;;;0.85;0.85;;;23.60;99.90;;;;;;5073432;28;20340;-62
2022/06/03 10:16:33;;;;;;;1.13;0.70;;;23.40;99.90;;;;;;5075005;28;20729;-62
2022/06/03 10:19:00;;;;;;;0.80;0.80;;;23.30;99.90;;;;;;5080061;28;20568;-62
2022/06/03 10:21:32;;;;;;;0.85;0.85;;;23.30;99.90;;;;;;5080203;28;20288;-62
2022/06/03 10:24:01;;;;;;;0.80;0.80;;;23.30;99.90;;;;;;5071977;28;20204;-62
2022/06/03 10:26:30;;;;;;;1.00;1.00;;;23.20;99.90;;;;;;5075334;28;20215;-63
2022/06/03 10:28:58;;;;;;;0.80;0.80;;;23.30;99.90;;;;;;5081651;28;20612;-63
2022/06/03 10:31:32;;;;;;;1.00;1.00;;;23.30;99.90;;;;;;5072271;28;20205;-63
2022/06/03 10:34:01;;;;;;;0.90;0.90;;;23.50;99.90;;;;;;5072099;28;20548;-62
2022/06/03 10:36:34;;;;;;;1.00;0.77;;;23.50;99.90;;;;;;5083529;28;20214;-62
2022/06/03 10:39:01;;;;;;;0.80;0.80;;;23.50;99.90;;;;;;5058194;28;20230;-63
2022/06/03 10:41:38;;;;;;;0.88;0.88;;;23.50;99.90;;;;;;5072015;28;20226;-62
2022/06/03 10:44:13;;;;;;;0.82;0.82;;;23.50;99.90;;;;;;5083325;28;20269;-62
2022/06/03 10:46:53;;;;;;;1.00;1.00;;;23.50;99.90;;;;;;5071468;28;20588;-63
2022/06/03 10:49:22;;;;;;;1.00;1.00;;;23.50;99.90;;;;;;5082967;28;20230;-62
2022/06/03 11:03:06;;;;;;;0.80;0.80;;;24.10;99.90;;;;;;5037555;28;20669;-63
2022/06/03 11:05:37;;;;;;;0.80;0.80;;;24.60;99.90;;;;;;5081331;28;20724;-62
2022/06/03 11:08:08;;;;;;;0.90;0.90;;;25.00;99.90;;;;;;5072014;28;20269;-63
2022/06/03 11:10:39;;;;;;;0.80;0.80;;;25.40;99.90;;;;;;5071765;28;20211;-63
2022/06/03 11:13:08;;;;;;;1.00;1.00;;;25.50;99.90;;;;;;5071287;28;20609;-63
2022/06/03 11:15:37;;;;;;;0.93;0.90;;;25.80;99.90;;;;;;5071360;28;20583;-63
2022/06/03 11:18:17;;;;;;;0.90;0.90;;;25.80;99.90;;;;;;5073125;28;20192;-63
2022/06/03 11:20:45;;;;;;;1.10;1.00;;;26.00;99.90;;;;;;5078444;28;20305;-62
2022/06/03 11:23:15;;;;;;;1.00;1.00;;;26.00;99.90;;;;;;5067592;28;20235;-62
2022/06/03 11:25:46;;;;;;;0.75;0.75;;;26.20;99.90;;;;;;5086478;28;20234;-62
2022/06/03 11:28:17;;;;;;;0.85;0.85;;;26.40;99.90;;;;;;5092553;28;20204;-62
2022/06/03 11:30:48;;;;;;;0.70;0.70;;;26.40;99.90;;;;;;5074346;28;20203;-62
2022/06/03 11:33:20;;;;;;;0.82;0.82;;;26.30;99.90;;;;;;5083323;28;20220;-62
2022/06/03 11:35:52;;;;;;;0.80;0.80;;;26.30;99.90;;;;;;5076925;28;20310;-62
2022/06/03 11:38:28;;;;;;;0.60;0.60;;;26.40;99.90;;;;;;5093187;28;20195;-63
2022/06/03 11:41:01;;;;;;;0.75;0.75;;;26.40;99.90;;;;;;5076828;28;20207;-63
2022/06/03 11:43:35;;;;;;;0.73;0.73;;;26.50;99.90;;;;;;5070762;28;20252;-64
2022/06/03 11:46:06;;;;;;;0.90;0.90;;;26.40;99.90;;;;;;5084719;28;20258;-64
2022/06/03 11:48:37;;;;;;;0.70;0.70;;;26.20;99.90;;;;;;5076700;28;20309;-64
2022/06/03 11:51:06;;;;;;;0.90;0.90;;;26.10;99.90;;;;;;5082711;28;20257;-63
2022/06/03 11:53:39;;;;;;;0.90;0.90;;;26.10;99.90;;;;;;5076817;28;20223;-62
2022/06/03 11:56:11;;;;;;;0.82;0.82;;;26.10;99.90;;;;;;5081520;28;20273;-62
2022/06/03 11:58:47;;;;;;;0.75;0.75;;;26.00;99.90;;;;;;5068909;28;20284;-62
2022/06/03 12:01:19;;;;;;;1.13;1.10;;;25.90;99.90;;;;;;5085181;28;20252;-62
2022/06/03 12:03:55;;;;;;;1.05;1.00;;;25.70;99.90;;;;;;5079961;28;20348;-62
2022/06/03 12:06:28;;;;;;;0.93;0.93;;;25.50;99.90;;;;;;5082978;28;20230;-62
2022/06/03 12:09:01;;;;;;;1.00;0.90;;;25.40;99.90;;;;;;5082595;28;20226;-63
2022/06/03 12:14:33;;;;;;;0.80;0.80;;;25.20;99.90;;;;;;5074341;28;20210;-63
2022/06/03 12:17:22;;;;;;;1.00;1.00;;;25.20;99.90;;;;;;5074349;28;20238;-62
2022/06/03 12:19:51;;;;;;;1.10;1.10;;;25.20;99.90;;;;;;5078846;28;20674;-62
2022/06/03 12:22:43;;;;;;;1.08;1.08;;;25.20;99.90;;;;;;5074574;28;20203;-62
2022/06/03 12:25:44;;;;;;;1.17;1.10;;;25.20;99.90;;;;;;5072498;28;20626;-62
2022/06/03 12:28:22;;;;;;;1.00;1.00;;;25.10;99.90;;;;;;5073979;28;20286;-63
2022/06/03 12:30:52;;;;;;;1.00;1.00;;;25.00;99.90;;;;;;5081627;28;20194;-62
2022/06/03 12:33:26;;;;;;;0.93;0.93;;;24.80;99.90;;;;;;5075729;28;20207;-64
2022/06/03 12:36:04;;;;;;;1.00;1.00;;;24.70;99.90;;;;;;5085366;28;20275;-63
2022/06/03 12:38:51;;;;;;;0.90;0.90;;;24.60;99.90;;;;;;5077826;28;20226;-63
2022/06/03 12:41:55;;;;;;;1.20;1.10;;;24.50;99.90;;;;;;5073900;28;20630;-63
2022/06/03 12:44:44;;;;;;;1.00;1.00;;;24.40;99.90;;;;;;5064704;28;20296;-63
2022/06/03 12:47:44;;;;;;;1.10;1.10;;;24.30;99.90;;;;;;5083515;28;20302;-63
2022/06/03 12:50:31;;;;;;;1.00;1.00;;;24.20;99.90;;;;;;5079493;28;20602;-63
2022/06/03 12:53:34;;;;;;;1.02;1.02;;;24.10;99.90;;;;;;5042352;28;20569;-62
2022/06/03 12:56:04;;;;;;;0.90;0.90;;;24.10;99.90;;;;;;5054023;28;20263;-62
2022/06/03 12:58:51;;;;;;;0.98;0.98;;;24.10;99.90;;;;;;5071283;28;20234;-62
2022/06/03 13:01:45;;;;;;;0.98;0.98;;;24.10;99.90;;;;;;5074334;28;20184;-63
2022/06/03 13:05:00;;;;;;;1.33;1.20;;;24.20;99.90;;;;;;5051375;28;20221;-62
2022/06/03 13:07:33;;;;;;;0.90;0.90;;;24.20;99.90;;;;;;5084804;28;20279;-62
2022/06/03 13:10:54;;;;;;;1.08;1.08;;;24.30;99.90;;;;;;5074325;28;20291;-62
2022/06/03 13:13:35;;;;;;;0.98;0.98;;;24.20;99.90;;;;;;5063737;28;20214;-62
2022/06/03 13:16:44;;;;;;;0.88;0.88;;;24.30;99.90;;;;;;5074788;28;20226;-62
2022/06/03 13:19:41;;;;;;;1.10;1.10;;;24.50;99.90;;;;;;5067852;28;20282;-62
2022/06/03 13:22:09;;;;;;;0.90;0.90;;;24.50;99.90;;;;;;5094363;28;20720;-62
2022/06/03 13:24:37;;;;;;;0.98;0.98;;;24.60;99.90;;;;;;5078550;28;20279;-62
2022/06/03 13:27:11;;;;;;;0.90;0.90;;;24.60;99.90;;;;;;5078647;28;20256;-64
2022/06/03 13:30:09;;;;;;;1.10;1.10;;;24.60;99.90;;;;;;5074958;28;20726;-62
2022/06/03 13:33:13;;;;;;;1.15;1.15;;;24.70;99.90;;;;;;5062074;28;20203;-62
2022/06/03 13:35:59;;;;;;;0.90;0.90;;;24.60;99.90;;;;;;5080383;28;20226;-63
2022/06/03 13:38:41;;;;;;;2.40;1.00;;;24.70;99.90;;;;;;5092452;28;20214;-62
2022/06/03 13:44:11;;;;;;;1.10;1.10;;;25.10;99.90;;;;;;5082677;28;20194;-63
2022/06/03 13:46:40;;;;;;;1.00;1.00;;;25.30;99.90;;;;;;5072929;28;20228;-63
2022/06/03 13:49:23;;;;;;;0.90;0.90;;;25.50;99.90;;;;;;5077098;28;20215;-63
2022/06/03 13:52:04;;;;;;;0.90;0.90;;;25.60;99.90;;;;;;5073546;28;20184;-63
2022/06/03 13:54:41;;;;;;;0.70;0.70;;;25.50;99.90;;;;;;5064536;28;20626;-62
2022/06/03 13:57:20;;;;;;;0.93;0.93;;;25.60;99.90;;;;;;5094240;28;20609;-62
2022/06/03 13:59:47;;;;;;;0.90;0.90;;;25.70;99.90;;;;;;5065777;28;20254;-64
2022/06/03 14:02:20;;;;;;;0.95;0.95;;;25.80;99.90;;;;;;5076300;28;20283;-64
2022/06/03 14:04:57;;;;;;;0.90;0.90;;;26.00;99.90;;;;;;5072656;28;20766;-62
2022/06/03 14:07:30;;;;;;;0.90;0.90;;;26.30;99.90;;;;;;5073370;28;20191;-62
2022/06/03 14:10:06;;;;;;;1.00;1.00;;;26.30;99.90;;;;;;5071047;28;20229;-62
2022/06/03 14:12:37;;;;;;;1.00;1.00;;;26.40;99.90;;;;;;5073459;28;20286;-62
2022/06/03 14:15:12;;;;;;;1.00;1.00;;;26.40;99.90;;;;;;5062893;28;20295;-62
2022/06/03 14:17:53;;;;;;;1.00;1.00;;;26.40;99.90;;;;;;5060440;28;20203;-63
2022/06/03 14:20:26;;;;;;;1.00;1.00;;;26.50;99.90;;;;;;5076622;28;20635;-62
2022/06/03 14:23:11;;;;;;;1.23;1.17;;;26.50;99.90;;;;;;5072307;28;20810;-62
2022/06/03 14:25:42;;;;;;;1.10;1.10;;;26.60;99.90;;;;;;5072121;28;20223;-63
2022/06/03 14:28:15;;;;;;;1.23;1.23;;;26.70;99.90;;;;;;5061915;28;20210;-62
2022/06/03 14:30:50;;;;;;;1.20;1.20;;;26.90;99.90;;;;;;5063133;28;20214;-62
2022/06/03 14:33:20;;;;;;;1.20;1.20;;;26.90;99.90;;;;;;5079595;28;20553;-62
2022/06/03 14:35:55;;;;;;;1.20;1.20;;;26.80;99.90;;;;;;5071910;28;20307;-64
2022/06/03 14:38:29;;;;;;;0.82;0.82;;;26.80;99.90;;;;;;5077190;28;20202;-62
2022/06/03 14:40:57;;;;;;;0.80;0.80;;;26.80;99.90;;;;;;5080282;28;20342;-61
2022/06/03 14:43:27;;;;;;;0.95;0.95;;;26.80;99.90;;;;;;5069452;28;20659;-62